sensor_id;sensor_type;location;lat;lon;timestamp;pressure;altitude;pressure_sealevel;temperature;humidity
20630;BME280;17386;43.846;25.950;2023-02-17T00:00:35;102134.22;;;2.82;100.00
20630;BME280;17386;43.846;25.950;2023-02-17T00:03:00;102128.88;;;2.79;100.00
20630;BME280;17386;43.846;25.950;2023-02-17T00:05:26;102129.63;;;2.70;100.00
20630;BME280;17386;43.846;25.950;2023-02-17T00:07:52;102133.09;;;2.69;100.00
20630;BME280;17386;43.846;25.950;2023-02-17T00:10:18;102125.97;;;2.62;100.00
20630;BME280;17386;43.846;25.950;2023-02-17T00:12:44;102127.78;;;2.66;100.00
20630;BME280;17386;43.846;25.950;2023-02-17T00:15:10;102121.63;;;2.66;100.00
20630;BME280;17386;43.846;25.950;2023-02-17T00:17:35;102127.00;;;2.72;100.00
20630;BME280;17386;43.846;25.950;2023-02-17T00:20:00;102124.59;;;2.83;100.00
20630;BME280;17386;43.846;25.950;2023-02-17T00:22:26;102112.50;;;2.92;100.00
20630;BME280;17386;43.846;25.950;2023-02-17T00:24:51;102106.47;;;2.98;100.00
20630;BME280;17386;43.846;25.950;2023-02-17T00:27:17;102109.19;;;3.03;100.00
20630;BME280;17386;43.846;25.950;2023-02-17T00:29:43;102099.63;;;3.06;100.00
20630;BME280;17386;43.846;25.950;2023-02-17T00:32:09;102104.97;;;3.12;100.00
20630;BME280;17386;43.846;25.950;2023-02-17T00:34:35;102102.44;;;3.17;100.00
20630;BME280;17386;43.846;25.950;2023-02-17T00:37:00;102082.41;;;3.23;100.00
20630;BME280;17386;43.846;25.950;2023-02-17T00:39:26;102090.41;;;3.31;100.00
20630;BME280;17386;43.846;25.950;2023-02-17T00:41:52;102086.13;;;3.38;100.00
20630;BME280;17386;43.846;25.950;2023-02-17T00:44:20;102090.56;;;3.42;100.00
20630;BME280;17386;43.846;25.950;2023-02-17T00:46:45;102086.25;;;3.47;100.00
20630;BME280;17386;43.846;25.950;2023-02-17T00:49:17;102082.75;;;3.48;100.00
20630;BME280;17386;43.846;25.950;2023-02-17T00:51:44;102079.28;;;3.49;100.00
20630;BME280;17386;43.846;25.950;2023-02-17T00:54:09;102085.47;;;3.52;100.00
20630;BME280;17386;43.846;25.950;2023-02-17T00:56:35;102088.03;;;3.49;100.00
20630;BME280;17386;43.846;25.950;2023-02-17T00:59:00;102082.88;;;3.55;100.00
20630;BME280;17386;43.846;25.950;2023-02-17T01:01:25;102071.47;;;3.53;100.00
20630;BME280;17386;43.846;25.950;2023-02-17T01:03:51;102075.94;;;3.59;100.00
20630;BME280;17386;43.846;25.950;2023-02-17T01:06:32;102069.81;;;3.62;100.00
20630;BME280;17386;43.846;25.950;2023-02-17T01:08:58;102073.41;;;3.65;100.00
20630;BME280;17386;43.846;25.950;2023-02-17T01:11:27;102059.31;;;3.62;100.00
20630;BME280;17386;43.846;25.950;2023-02-17T01:13:53;102054.94;;;3.64;100.00
20630;BME280;17386;43.846;25.950;2023-02-17T01:16:34;102055.91;;;3.69;100.00
20630;BME280;17386;43.846;25.950;2023-02-17T01:19:06;102053.28;;;3.70;100.00
20630;BME280;17386;43.846;25.950;2023-02-17T01:21:32;102037.50;;;3.69;100.00
20630;BME280;17386;43.846;25.950;2023-02-17T01:24:00;102047.16;;;3.70;100.00
20630;BME280;17386;43.846;25.950;2023-02-17T01:26:28;102039.84;;;3.49;100.00
20630;BME280;17386;43.846;25.950;2023-02-17T01:28:54;102042.38;;;3.41;100.00
20630;BME280;17386;43.846;25.950;2023-02-17T01:31:21;102041.38;;;3.30;100.00
20630;BME280;17386;43.846;25.950;2023-02-17T01:33:47;102041.41;;;3.35;100.00
20630;BME280;17386;43.846;25.950;2023-02-17T01:36:15;102030.84;;;3.30;100.00
20630;BME280;17386;43.846;25.950;2023-02-17T01:38:40;102040.38;;;3.23;100.00
20630;BME280;17386;43.846;25.950;2023-02-17T01:41:07;102023.78;;;3.24;100.00
20630;BME280;17386;43.846;25.950;2023-02-17T01:43:33;102019.31;;;3.22;100.00
20630;BME280;17386;43.846;25.950;2023-02-17T01:46:01;102025.53;;;3.27;100.00
20630;BME280;17386;43.846;25.950;2023-02-17T01:48:37;102026.50;;;3.34;100.00
20630;BME280;17386;43.846;25.950;2023-02-17T01:53:40;102027.47;;;3.37;100.00
20630;BME280;17386;43.846;25.950;2023-02-17T01:56:08;102023.19;;;3.44;100.00
20630;BME280;17386;43.846;25.950;2023-02-17T01:58:34;102005.69;;;3.47;100.00
20630;BME280;17386;43.846;25.950;2023-02-17T02:01:02;102012.78;;;3.53;100.00
20630;BME280;17386;43.846;25.950;2023-02-17T02:03:31;102010.09;;;3.48;100.00
20630;BME280;17386;43.846;25.950;2023-02-17T02:06:00;102007.44;;;3.48;100.00
20630;BME280;17386;43.846;25.950;2023-02-17T02:08:36;102008.41;;;3.53;100.00
20630;BME280;17386;43.846;25.950;2023-02-17T02:11:02;102002.28;;;3.54;100.00
20630;BME280;17386;43.846;25.950;2023-02-17T02:13:28;102007.63;;;3.59;100.00
20630;BME280;17386;43.846;25.950;2023-02-17T02:16:05;102001.47;;;3.59;100.00
20630;BME280;17386;43.846;25.950;2023-02-17T02:18:38;102004.13;;;3.60;100.00
20630;BME280;17386;43.846;25.950;2023-02-17T02:29:23;101993.50;;;3.52;100.00
20630;BME280;17386;43.846;25.950;2023-02-17T02:34:25;101993.53;;;3.54;100.00
20630;BME280;17386;43.846;25.950;2023-02-17T02:37:16;101988.09;;;3.42;100.00
20630;BME280;17386;43.846;25.950;2023-02-17T02:39:49;101989.75;;;3.34;100.00
20630;BME280;17386;43.846;25.950;2023-02-17T02:42:19;101988.69;;;3.21;100.00
20630;BME280;17386;43.846;25.950;2023-02-17T02:44:46;101979.75;;;3.08;100.00
20630;BME280;17386;43.846;25.950;2023-02-17T02:47:47;101981.47;;;3.08;100.00
20630;BME280;17386;43.846;25.950;2023-02-17T02:50:16;101977.94;;;3.04;100.00
20630;BME280;17386;43.846;25.950;2023-02-17T02:52:58;101981.53;;;3.09;100.00
20630;BME280;17386;43.846;25.950;2023-02-17T02:55:52;101977.13;;;3.08;100.00
20630;BME280;17386;43.846;25.950;2023-02-17T03:01:10;101977.34;;;3.23;100.00
20630;BME280;17386;43.846;25.950;2023-02-17T03:03:50;101979.03;;;3.20;100.00
20630;BME280;17386;43.846;25.950;2023-02-17T03:06:29;101986.06;;;3.21;100.00
20630;BME280;17386;43.846;25.950;2023-02-17T03:09:02;101978.25;;;3.25;100.00
20630;BME280;17386;43.846;25.950;2023-02-17T03:11:29;101981.78;;;3.29;100.00
20630;BME280;17386;43.846;25.950;2023-02-17T03:14:03;101994.00;;;3.24;100.00
20630;BME280;17386;43.846;25.950;2023-02-17T03:16:29;101996.50;;;3.16;100.00
20630;BME280;17386;43.846;25.950;2023-02-17T03:18:55;102000.69;;;3.04;100.00
20630;BME280;17386;43.846;25.950;2023-02-17T03:21:21;102001.41;;;2.95;100.00
20630;BME280;17386;43.846;25.950;2023-02-17T03:23:46;102010.00;;;2.83;100.00
20630;BME280;17386;43.846;25.950;2023-02-17T03:26:12;102009.69;;;2.66;100.00
20630;BME280;17386;43.846;25.950;2023-02-17T03:28:37;102013.31;;;2.73;100.00
20630;BME280;17386;43.846;25.950;2023-02-17T03:31:03;102008.88;;;2.69;100.00
20630;BME280;17386;43.846;25.950;2023-02-17T03:33:28;102014.78;;;2.57;100.00
20630;BME280;17386;43.846;25.950;2023-02-17T03:35:54;102011.28;;;2.55;100.00
20630;BME280;17386;43.846;25.950;2023-02-17T03:38:19;102014.03;;;2.63;100.00
20630;BME280;17386;43.846;25.950;2023-02-17T03:40:44;102008.91;;;2.70;100.00
20630;BME280;17386;43.846;25.950;2023-02-17T03:43:10;102006.44;;;2.81;100.00
20630;BME280;17386;43.846;25.950;2023-02-17T03:45:36;102002.16;;;2.86;100.00
20630;BME280;17386;43.846;25.950;2023-02-17T03:48:02;101993.25;;;2.75;100.00
20630;BME280;17386;43.846;25.950;2023-02-17T03:50:28;101991.53;;;2.79;100.00
20630;BME280;17386;43.846;25.950;2023-02-17T03:52:53;101986.97;;;2.67;100.00
20630;BME280;17386;43.846;25.950;2023-02-17T03:55:18;101999.47;;;2.82;100.00
20630;BME280;17386;43.846;25.950;2023-02-17T03:57:44;101997.78;;;2.85;100.00
20630;BME280;17386;43.846;25.950;2023-02-17T04:00:10;101994.38;;;2.92;100.00
20630;BME280;17386;43.846;25.950;2023-02-17T04:02:35;101999.75;;;3.01;100.00
20630;BME280;17386;43.846;25.950;2023-02-17T04:05:01;101997.22;;;3.06;100.00
20630;BME280;17386;43.846;25.950;2023-02-17T04:07:26;102000.03;;;3.18;100.00
20630;BME280;17386;43.846;25.950;2023-02-17T04:09:52;101997.53;;;3.27;100.00
20630;BME280;17386;43.846;25.950;2023-02-17T04:12:17;102006.41;;;3.36;100.00
20630;BME280;17386;43.846;25.950;2023-02-17T04:14:42;101997.72;;;3.41;100.00
20630;BME280;17386;43.846;25.950;2023-02-17T04:17:08;101991.75;;;3.51;100.00
20630;BME280;17386;43.846;25.950;2023-02-17T04:19:33;101997.97;;;3.58;100.00
20630;BME280;17386;43.846;25.950;2023-02-17T04:21:59;101999.75;;;3.64;100.00
20630;BME280;17386;43.846;25.950;2023-02-17T04:24:24;101996.31;;;3.66;100.00
20630;BME280;17386;43.846;25.950;2023-02-17T04:26:49;101999.81;;;3.65;100.00
20630;BME280;17386;43.846;25.950;2023-02-17T04:29:15;102001.56;;;3.65;100.00
20630;BME280;17386;43.846;25.950;2023-02-17T04:31:40;102001.66;;;3.71;100.00
20630;BME280;17386;43.846;25.950;2023-02-17T04:34:06;101999.81;;;3.67;100.00
20630;BME280;17386;43.846;25.950;2023-02-17T04:36:31;102012.97;;;3.67;100.00
20630;BME280;17386;43.846;25.950;2023-02-17T04:38:57;102012.97;;;3.68;100.00
20630;BME280;17386;43.846;25.950;2023-02-17T04:41:22;102020.06;;;3.74;100.00
20630;BME280;17386;43.846;25.950;2023-02-17T04:43:47;102018.34;;;3.77;100.00
20630;BME280;17386;43.846;25.950;2023-02-17T04:46:13;102023.56;;;3.71;100.00
20630;BME280;17386;43.846;25.950;2023-02-17T04:48:38;102019.16;;;3.72;100.00
20630;BME280;17386;43.846;25.950;2023-02-17T04:51:04;102024.44;;;3.75;100.00
20630;BME280;17386;43.846;25.950;2023-02-17T04:53:29;102021.69;;;3.64;100.00
20630;BME280;17386;43.846;25.950;2023-02-17T04:55:55;102025.22;;;3.66;100.00
20630;BME280;17386;43.846;25.950;2023-02-17T04:58:20;102017.25;;;3.60;100.00
20630;BME280;17386;43.846;25.950;2023-02-17T05:00:47;102016.38;;;3.60;100.00
20630;BME280;17386;43.846;25.950;2023-02-17T05:03:13;102016.38;;;3.61;100.00
20630;BME280;17386;43.846;25.950;2023-02-17T05:05:38;102019.09;;;3.66;100.00
20630;BME280;17386;43.846;25.950;2023-02-17T05:08:06;102020.78;;;3.64;100.00
20630;BME280;17386;43.846;25.950;2023-02-17T05:10:32;102019.13;;;3.69;100.00
20630;BME280;17386;43.846;25.950;2023-02-17T05:12:58;102032.44;;;3.84;100.00
20630;BME280;17386;43.846;25.950;2023-02-17T05:15:23;102030.75;;;3.89;100.00
20630;BME280;17386;43.846;25.950;2023-02-17T05:17:48;102019.44;;;3.95;100.00
20630;BME280;17386;43.846;25.950;2023-02-17T05:20:14;102021.25;;;3.99;100.00
20630;BME280;17386;43.846;25.950;2023-02-17T05:22:39;102025.72;;;4.07;100.00
20630;BME280;17386;43.846;25.950;2023-02-17T05:25:05;102022.25;;;4.11;100.00
20630;BME280;17386;43.846;25.950;2023-02-17T05:27:31;102022.31;;;4.15;100.00
20630;BME280;17386;43.846;25.950;2023-02-17T05:29:57;102021.53;;;4.23;100.00
20630;BME280;17386;43.846;25.950;2023-02-17T05:32:22;102024.22;;;4.29;100.00
20630;BME280;17386;43.846;25.950;2023-02-17T05:34:48;102037.44;;;4.35;100.00
20630;BME280;17386;43.846;25.950;2023-02-17T05:37:13;102040.16;;;4.45;100.00
20630;BME280;17386;43.846;25.950;2023-02-17T05:39:39;102034.09;;;4.50;100.00
20630;BME280;17386;43.846;25.950;2023-02-17T05:42:04;102051.69;;;4.56;100.00
20630;BME280;17386;43.846;25.950;2023-02-17T05:44:29;102064.03;;;4.63;100.00
20630;BME280;17386;43.846;25.950;2023-02-17T05:46:55;102058.03;;;4.75;100.00
20630;BME280;17386;43.846;25.950;2023-02-17T05:49:20;102052.72;;;4.72;100.00
20630;BME280;17386;43.846;25.950;2023-02-17T05:51:46;102044.91;;;4.81;100.00
20630;BME280;17386;43.846;25.950;2023-02-17T05:54:11;102050.25;;;4.90;100.00
20630;BME280;17386;43.846;25.950;2023-02-17T05:56:38;102049.38;;;4.94;100.00
20630;BME280;17386;43.846;25.950;2023-02-17T05:59:03;102059.09;;;4.97;100.00
20630;BME280;17386;43.846;25.950;2023-02-17T06:01:28;102056.50;;;5.04;100.00
20630;BME280;17386;43.846;25.950;2023-02-17T06:03:54;102048.59;;;5.03;100.00
20630;BME280;17386;43.846;25.950;2023-02-17T06:06:19;102060.03;;;5.06;100.00
20630;BME280;17386;43.846;25.950;2023-02-17T06:08:45;102062.75;;;5.15;100.00
20630;BME280;17386;43.846;25.950;2023-02-17T06:11:10;102068.97;;;5.28;100.00
20630;BME280;17386;43.846;25.950;2023-02-17T06:13:36;102067.31;;;5.38;100.00
20630;BME280;17386;43.846;25.950;2023-02-17T06:16:02;102072.56;;;5.38;100.00
20630;BME280;17386;43.846;25.950;2023-02-17T06:18:27;102076.09;;;5.38;100.00
20630;BME280;17386;43.846;25.950;2023-02-17T06:20:56;102080.53;;;5.45;100.00
20630;BME280;17386;43.846;25.950;2023-02-17T06:23:23;102078.84;;;5.60;100.00
20630;BME280;17386;43.846;25.950;2023-02-17T06:25:48;102078.91;;;5.69;99.63
20630;BME280;17386;43.846;25.950;2023-02-17T06:28:14;102074.50;;;5.68;99.43
20630;BME280;17386;43.846;25.950;2023-02-17T06:30:39;102090.31;;;5.69;99.98
20630;BME280;17386;43.846;25.950;2023-02-17T06:33:05;102093.09;;;5.88;99.88
20630;BME280;17386;43.846;25.950;2023-02-17T06:35:30;102093.16;;;5.92;99.65
20630;BME280;17386;43.846;25.950;2023-02-17T06:37:55;102090.50;;;5.97;98.90
20630;BME280;17386;43.846;25.950;2023-02-17T06:40:21;102089.69;;;6.04;99.17
20630;BME280;17386;43.846;25.950;2023-02-17T06:42:46;102082.72;;;6.18;98.45
20630;BME280;17386;43.846;25.950;2023-02-17T06:45:12;102073.03;;;6.13;98.63
20630;BME280;17386;43.846;25.950;2023-02-17T06:47:37;102088.91;;;6.26;98.67
20630;BME280;17386;43.846;25.950;2023-02-17T06:50:03;102083.63;;;6.37;98.32
20630;BME280;17386;43.846;25.950;2023-02-17T06:52:28;102086.34;;;6.57;97.21
20630;BME280;17386;43.846;25.950;2023-02-17T06:54:54;102087.19;;;6.39;97.44
20630;BME280;17386;43.846;25.950;2023-02-17T06:57:19;102088.03;;;6.27;97.80
20630;BME280;17386;43.846;25.950;2023-02-17T06:59:45;102094.19;;;6.37;97.93
20630;BME280;17386;43.846;25.950;2023-02-17T07:02:11;102096.91;;;6.54;97.05
20630;BME280;17386;43.846;25.950;2023-02-17T07:04:38;102106.63;;;6.67;96.39
20630;BME280;17386;43.846;25.950;2023-02-17T07:07:03;102111.84;;;6.58;97.13
20630;BME280;17386;43.846;25.950;2023-02-17T07:09:29;102116.25;;;6.57;96.42
20630;BME280;17386;43.846;25.950;2023-02-17T07:11:54;102110.09;;;6.58;96.36
20630;BME280;17386;43.846;25.950;2023-02-17T07:14:22;102110.13;;;6.72;95.39
20630;BME280;17386;43.846;25.950;2023-02-17T07:16:47;102118.03;;;6.63;95.97
20630;BME280;17386;43.846;25.950;2023-02-17T07:19:13;102119.84;;;6.73;95.47
20630;BME280;17386;43.846;25.950;2023-02-17T07:21:38;102125.13;;;6.73;95.23
20630;BME280;17386;43.846;25.950;2023-02-17T07:24:04;102130.41;;;6.85;94.73
20630;BME280;17386;43.846;25.950;2023-02-17T07:26:29;102119.84;;;6.99;94.29
20630;BME280;17386;43.846;25.950;2023-02-17T07:28:55;102126.03;;;7.04;93.95
20630;BME280;17386;43.846;25.950;2023-02-17T07:31:20;102132.22;;;7.17;94.19
20630;BME280;17386;43.846;25.950;2023-02-17T07:33:45;102126.03;;;7.13;93.25
20630;BME280;17386;43.846;25.950;2023-02-17T07:36:15;102136.59;;;7.13;93.41
20630;BME280;17386;43.846;25.950;2023-02-17T07:38:41;102140.16;;;7.08;92.93
20630;BME280;17386;43.846;25.950;2023-02-17T07:41:12;102130.47;;;7.07;93.44
20630;BME280;17386;43.846;25.950;2023-02-17T07:43:38;102132.22;;;7.03;93.48
20630;BME280;17386;43.846;25.950;2023-02-17T07:46:04;102132.19;;;7.06;93.53
20630;BME280;17386;43.846;25.950;2023-02-17T07:48:30;102138.41;;;7.07;94.00
20630;BME280;17386;43.846;25.950;2023-02-17T07:50:56;102145.44;;;7.14;93.55
20630;BME280;17386;43.846;25.950;2023-02-17T07:53:21;102156.88;;;7.04;93.94
20630;BME280;17386;43.846;25.950;2023-02-17T07:55:47;102144.53;;;7.03;94.31
20630;BME280;17386;43.846;25.950;2023-02-17T07:58:12;102148.94;;;7.11;93.72
20630;BME280;17386;43.846;25.950;2023-02-17T08:00:38;102133.06;;;6.99;94.21
20630;BME280;17386;43.846;25.950;2023-02-17T08:03:03;102140.16;;;7.09;93.94
20630;BME280;17386;43.846;25.950;2023-02-17T08:05:28;102138.38;;;6.87;94.13
20630;BME280;17386;43.846;25.950;2023-02-17T08:07:54;102139.22;;;6.91;94.99
20630;BME280;17386;43.846;25.950;2023-02-17T08:10:38;102126.06;;;7.01;94.33
20630;BME280;17386;43.846;25.950;2023-02-17T08:13:23;102128.69;;;7.03;95.15
20630;BME280;17386;43.846;25.950;2023-02-17T08:15:49;102141.03;;;7.08;94.95
20630;BME280;17386;43.846;25.950;2023-02-17T08:18:15;102127.81;;;7.15;94.37
20630;BME280;17386;43.846;25.950;2023-02-17T08:20:40;102133.13;;;7.34;93.83
20630;BME280;17386;43.846;25.950;2023-02-17T08:23:05;102131.31;;;7.47;93.42
20630;BME280;17386;43.846;25.950;2023-02-17T08:25:32;102128.69;;;7.50;92.99
20630;BME280;17386;43.846;25.950;2023-02-17T08:27:58;102126.00;;;7.67;92.41
20630;BME280;17386;43.846;25.950;2023-02-17T08:30:24;102135.69;;;7.85;91.65
20630;BME280;17386;43.846;25.950;2023-02-17T08:32:49;102139.19;;;7.88;91.36
20630;BME280;17386;43.846;25.950;2023-02-17T08:35:15;102138.34;;;7.91;91.20
20630;BME280;17386;43.846;25.950;2023-02-17T08:37:43;102140.06;;;8.06;90.71
20630;BME280;17386;43.846;25.950;2023-02-17T08:40:09;102141.78;;;8.13;90.08
20630;BME280;17386;43.846;25.950;2023-02-17T08:42:35;102139.06;;;8.33;89.57
20630;BME280;17386;43.846;25.950;2023-02-17T08:45:00;102140.81;;;8.47;89.21
20630;BME280;17386;43.846;25.950;2023-02-17T08:47:26;102146.03;;;8.66;88.18
20630;BME280;17386;43.846;25.950;2023-02-17T08:49:51;102153.03;;;8.70;88.12
20630;BME280;17386;43.846;25.950;2023-02-17T08:52:17;102152.97;;;8.82;87.81
20630;BME280;17386;43.846;25.950;2023-02-17T08:54:42;102160.91;;;8.88;87.67
20630;BME280;17386;43.846;25.950;2023-02-17T08:57:08;102155.56;;;8.94;86.96
20630;BME280;17386;43.846;25.950;2023-02-17T08:59:34;102152.81;;;9.10;85.77
20630;BME280;17386;43.846;25.950;2023-02-17T09:01:59;102151.06;;;9.04;85.67
20630;BME280;17386;43.846;25.950;2023-02-17T09:04:24;102146.28;;;9.50;85.23
20630;BME280;17386;43.846;25.950;2023-02-17T09:06:51;102148.81;;;9.66;83.39
20630;BME280;17386;43.846;25.950;2023-02-17T09:09:20;102151.69;;;9.38;85.02
20630;BME280;17386;43.846;25.950;2023-02-17T09:11:47;102143.34;;;9.81;83.84
20630;BME280;17386;43.846;25.950;2023-02-17T09:14:13;102141.31;;;10.06;82.49
20630;BME280;17386;43.846;25.950;2023-02-17T09:16:39;102140.88;;;10.46;81.07
20630;BME280;17386;43.846;25.950;2023-02-17T09:19:04;102144.09;;;10.69;79.05
20630;BME280;17386;43.846;25.950;2023-02-17T09:21:30;102145.66;;;10.85;78.71
20630;BME280;17386;43.846;25.950;2023-02-17T09:23:55;102132.47;;;10.76;78.45
20630;BME280;17386;43.846;25.950;2023-02-17T09:26:21;102144.78;;;10.83;78.77
20630;BME280;17386;43.846;25.950;2023-02-17T09:28:47;102151.69;;;10.98;77.83
20630;BME280;17386;43.846;25.950;2023-02-17T09:31:15;102142.91;;;10.90;77.08
20630;BME280;17386;43.846;25.950;2023-02-17T09:33:42;102163.25;;;10.94;77.89
20630;BME280;17386;43.846;25.950;2023-02-17T09:36:09;102153.88;;;11.27;77.05
20630;BME280;17386;43.846;25.950;2023-02-17T09:38:37;102139.00;;;11.66;75.32
20630;BME280;17386;43.846;25.950;2023-02-17T09:41:23;102142.25;;;11.85;73.75
20630;BME280;17386;43.846;25.950;2023-02-17T09:43:49;102142.19;;;11.88;74.35
20630;BME280;17386;43.846;25.950;2023-02-17T09:46:23;102131.41;;;11.96;73.91
20630;BME280;17386;43.846;25.950;2023-02-17T09:48:52;102136.47;;;12.10;73.29
20630;BME280;17386;43.846;25.950;2023-02-17T09:51:32;102135.72;;;12.00;72.98
20630;BME280;17386;43.846;25.950;2023-02-17T09:54:15;102133.03;;;12.03;73.16
20630;BME280;17386;43.846;25.950;2023-02-17T09:56:44;102119.44;;;12.17;72.96
20630;BME280;17386;43.846;25.950;2023-02-17T09:59:17;102119.78;;;12.43;71.86
20630;BME280;17386;43.846;25.950;2023-02-17T10:01:45;102107.38;;;12.81;71.10
20630;BME280;17386;43.846;25.950;2023-02-17T10:04:15;102109.66;;;13.35;66.55
20630;BME280;17386;43.846;25.950;2023-02-17T10:06:46;102106.88;;;13.39;65.44
20630;BME280;17386;43.846;25.950;2023-02-17T10:09:33;102103.72;;;13.22;65.40
20630;BME280;17386;43.846;25.950;2023-02-17T10:14:40;102103.97;;;14.12;62.31
20630;BME280;17386;43.846;25.950;2023-02-17T10:17:14;102093.31;;;14.71;60.09
20630;BME280;17386;43.846;25.950;2023-02-17T10:22:42;102080.81;;;15.00;59.97
20630;BME280;17386;43.846;25.950;2023-02-17T10:25:14;102084.06;;;15.61;57.69
20630;BME280;17386;43.846;25.950;2023-02-17T10:27:48;102077.19;;;15.54;57.64
20630;BME280;17386;43.846;25.950;2023-02-17T10:30:44;102076.66;;;15.18;58.20
20630;BME280;17386;43.846;25.950;2023-02-17T10:33:22;102075.19;;;15.08;59.92
20630;BME280;17386;43.846;25.950;2023-02-17T10:35:58;102083.84;;;15.16;59.26
20630;BME280;17386;43.846;25.950;2023-02-17T10:38:50;102079.72;;;15.58;57.39
20630;BME280;17386;43.846;25.950;2023-02-17T10:41:23;102075.00;;;15.40;57.96
20630;BME280;17386;43.846;25.950;2023-02-17T10:43:51;102067.81;;;15.92;57.14
20630;BME280;17386;43.846;25.950;2023-02-17T10:46:22;102066.63;;;16.46;55.64
20630;BME280;17386;43.846;25.950;2023-02-17T10:48:52;102074.50;;;16.04;55.46
20630;BME280;17386;43.846;25.950;2023-02-17T10:51:25;102064.13;;;15.95;56.27
20630;BME280;17386;43.846;25.950;2023-02-17T10:53:58;102054.66;;;16.09;56.11
20630;BME280;17386;43.846;25.950;2023-02-17T10:56:38;102058.47;;;15.79;56.64
20630;BME280;17386;43.846;25.950;2023-02-17T10:59:18;102055.59;;;15.58;57.82
20630;BME280;17386;43.846;25.950;2023-02-17T11:01:44;102053.94;;;15.54;56.73
20630;BME280;17386;43.846;25.950;2023-02-17T11:04:11;102054.84;;;15.28;56.91
20630;BME280;17386;43.846;25.950;2023-02-17T11:06:46;102053.44;;;14.92;58.07
20630;BME280;17386;43.846;25.950;2023-02-17T11:11:58;102047.47;;;14.82;58.61
20630;BME280;17386;43.846;25.950;2023-02-17T11:14:27;102050.09;;;14.57;60.26
20630;BME280;17386;43.846;25.950;2023-02-17T11:16:57;102054.16;;;14.39;61.20
20630;BME280;17386;43.846;25.950;2023-02-17T11:19:31;102052.03;;;14.52;61.05
20630;BME280;17386;43.846;25.950;2023-02-17T11:22:05;102055.94;;;14.70;60.52
20630;BME280;17386;43.846;25.950;2023-02-17T11:24:32;102051.34;;;14.73;59.14
20630;BME280;17386;43.846;25.950;2023-02-17T11:27:09;102049.16;;;14.86;59.51
20630;BME280;17386;43.846;25.950;2023-02-17T11:29:35;102037.09;;;14.73;58.78
20630;BME280;17386;43.846;25.950;2023-02-17T11:32:11;102038.22;;;14.66;58.63
20630;BME280;17386;43.846;25.950;2023-02-17T11:34:42;102028.84;;;14.53;59.25
20630;BME280;17386;43.846;25.950;2023-02-17T11:39:41;102021.91;;;14.73;58.71
20630;BME280;17386;43.846;25.950;2023-02-17T11:44:40;102008.88;;;15.16;57.46
20630;BME280;17386;43.846;25.950;2023-02-17T11:50:18;102014.13;;;15.70;56.67
20630;BME280;17386;43.846;25.950;2023-02-17T11:53:20;102003.53;;;15.91;56.69
20630;BME280;17386;43.846;25.950;2023-02-17T11:58:39;101997.34;;;16.12;53.47
20630;BME280;17386;43.846;25.950;2023-02-17T12:01:34;101998.63;;;16.25;53.01
20630;BME280;17386;43.846;25.950;2023-02-17T12:04:31;101983.38;;;16.71;48.58
20630;BME280;17386;43.846;25.950;2023-02-17T12:10:22;101993.63;;;16.60;47.91
20630;BME280;17386;43.846;25.950;2023-02-17T12:13:14;101993.88;;;16.32;48.99
20630;BME280;17386;43.846;25.950;2023-02-17T12:18:36;101979.34;;;16.16;50.96
20630;BME280;17386;43.846;25.950;2023-02-17T12:21:42;101975.41;;;16.46;50.47
20630;BME280;17386;43.846;25.950;2023-02-17T12:24:45;101971.44;;;16.34;50.34
20630;BME280;17386;43.846;25.950;2023-02-17T12:35:24;101960.66;;;15.91;52.73
20630;BME280;17386;43.846;25.950;2023-02-17T12:37:57;101960.88;;;15.84;52.81
20630;BME280;17386;43.846;25.950;2023-02-17T12:40:52;101965.78;;;15.48;53.27
20630;BME280;17386;43.846;25.950;2023-02-17T12:46:08;101961.88;;;15.33;53.98
20630;BME280;17386;43.846;25.950;2023-02-17T12:48:43;101967.59;;;15.48;53.84
20630;BME280;17386;43.846;25.950;2023-02-17T12:51:29;101974.38;;;15.33;52.64
20630;BME280;17386;43.846;25.950;2023-02-17T12:54:04;101978.28;;;15.24;53.28
20630;BME280;17386;43.846;25.950;2023-02-17T12:59:26;101973.28;;;15.64;53.23
20630;BME280;17386;43.846;25.950;2023-02-17T13:02:00;101962.81;;;15.56;52.61
20630;BME280;17386;43.846;25.950;2023-02-17T13:04:27;101962.00;;;15.54;53.17
20630;BME280;17386;43.846;25.950;2023-02-17T13:07:03;101960.56;;;15.45;52.96
20630;BME280;17386;43.846;25.950;2023-02-17T13:09:36;101960.28;;;15.53;53.16
20630;BME280;17386;43.846;25.950;2023-02-17T13:14:50;101947.03;;;15.48;53.47
20630;BME280;17386;43.846;25.950;2023-02-17T13:17:39;101946.31;;;15.43;52.05
20630;BME280;17386;43.846;25.950;2023-02-17T13:22:42;101946.94;;;15.26;52.00
20630;BME280;17386;43.846;25.950;2023-02-17T13:25:24;101952.75;;;15.14;50.88
20630;BME280;17386;43.846;25.950;2023-02-17T13:27:50;101955.56;;;15.10;50.70
20630;BME280;17386;43.846;25.950;2023-02-17T13:32:41;101947.00;;;15.00;50.89
20630;BME280;17386;43.846;25.950;2023-02-17T13:37:40;101953.94;;;15.05;51.00
20630;BME280;17386;43.846;25.950;2023-02-17T13:42:42;101955.81;;;15.03;50.87
20630;BME280;17386;43.846;25.950;2023-02-17T13:45:23;101962.03;;;15.04;50.95
20630;BME280;17386;43.846;25.950;2023-02-17T13:47:51;101951.34;;;15.02;50.65
20630;BME280;17386;43.846;25.950;2023-02-17T13:50:34;101964.00;;;14.99;50.04
20630;BME280;17386;43.846;25.950;2023-02-17T13:53:01;101963.13;;;14.98;49.90
20630;BME280;17386;43.846;25.950;2023-02-17T13:55:27;101959.56;;;14.98;49.08
20630;BME280;17386;43.846;25.950;2023-02-17T13:57:57;101962.19;;;14.99;49.03
20630;BME280;17386;43.846;25.950;2023-02-17T14:00:28;101964.06;;;14.96;48.51